KBGM/BGM METAR and TAF weather

Enter ICAO airport designator
Station Type Date Time Source
KBGM METAR 2018/10/21 04:22 UTC NOAA

KBGM 210422Z AUTO 28007KT 10SM -RA FEW006 BKN075 OVC090 03/03 A2967 RMK AO2 P0000 T00330033


Station Type Date Time Source
KBGM Decoded METAR 2018/10/21 04:22 UTC NOAA

BINGHAMTON REGIONAL AIRPORT, NY, United States (KBGM) 42-12N 75-59W 492M
Oct 21, 2018 - 12:22 AM EDT / 2018.10.21 0422 UTC
Wind: from the W (280 degrees) at 8 MPH (7 KT):0
Visibility: 10 mile(s):0
Sky conditions: overcast
Weather: light rain
Precipitation last hour: A trace
Temperature: 37.9 F (3.3 C)
Dew Point: 37.9 F (3.3 C)
Relative Humidity: 100%
Pressure (altimeter): 29.67 in. Hg (1004 hPa)
ob: KBGM 210422Z AUTO 28007KT 10SM -RA FEW006 BKN075 OVC090 03/03 A2967 RMK AO2 P0000 T00330033
cycle: 4

Station Type Date Time Source
KBGM TAF 2018/10/21 03:40 UTC NOAA

TAF
AMD KBGM 210238Z 2103/2124 00000KT P6SM -SHRA OVC025
TEMPO 2103/2106 3SM -SHRA BR OVC008
FM210600 36010KT 3SM -SHRASN BR OVC025
FM210800 34012KT 3SM -SHSN BR OVC015
TEMPO 2110/2114 1SM -SHSN BR OVC007
FM211400 32013KT 3SM -SHSN OVC025
FM212000 30013G20KT P6SM BKN040


Example: see airport list